Osnabrock, North Dakota
Current Conditions -  °F | °C
As of 7:35 AM on Friday 19 Dec 2014 (Local Time) from KD55 Reporting Station
Haze Haze  
Wind Chill: 17°   Ceiling: 200
Heat Index: 23°   Visibility: 2mi
Dew Point: 23°   Wind: 5mph
Humidity: 100%   Direction: 360°N
Pressure: 29.97"   Gusts: NA
Location:  48.67°N, 98.15°W
Report Text: KD55 191335Z AUTO 36004KT 2SM BR OVC002 M05/M05 A2997 RMK AO2
Loading
Personal Weather Stations






























Interactive Weather Map New forecast layout! Learn more

10-Day Weather Forecast

Advertisements
Track Severe Weather on mobile